sensor_id;sensor_type;location;lat;lon;timestamp;P1;durP1;ratioP1;P2;durP2;ratioP2
20318;SDS011;10317;47.254;11.314;2023-03-23T00:01:07;3.85;;;2.80;;
20318;SDS011;10317;47.254;11.314;2023-03-23T00:03:44;4.47;;;2.88;;
20318;SDS011;10317;47.254;11.314;2023-03-23T00:06:11;3.67;;;3.38;;
20318;SDS011;10317;47.254;11.314;2023-03-23T00:08:42;3.13;;;2.92;;
20318;SDS011;10317;47.254;11.314;2023-03-23T00:11:18;3.63;;;3.33;;
20318;SDS011;10317;47.254;11.314;2023-03-23T00:13:46;4.47;;;3.28;;
20318;SDS011;10317;47.254;11.314;2023-03-23T00:16:17;3.72;;;3.13;;
20318;SDS011;10317;47.254;11.314;2023-03-23T00:18:54;3.72;;;3.00;;
20318;SDS011;10317;47.254;11.314;2023-03-23T00:21:24;3.42;;;3.20;;
20318;SDS011;10317;47.254;11.314;2023-03-23T00:23:58;5.53;;;2.83;;
20318;SDS011;10317;47.254;11.314;2023-03-23T00:26:32;3.92;;;3.10;;
20318;SDS011;10317;47.254;11.314;2023-03-23T00:29:02;3.03;;;2.83;;
20318;SDS011;10317;47.254;11.314;2023-03-23T00:31:29;2.58;;;2.47;;
20318;SDS011;10317;47.254;11.314;2023-03-23T00:34:01;3.85;;;3.05;;
20318;SDS011;10317;47.254;11.314;2023-03-23T00:36:32;3.45;;;3.05;;
20318;SDS011;10317;47.254;11.314;2023-03-23T00:39:00;5.03;;;4.50;;
20318;SDS011;10317;47.254;11.314;2023-03-23T00:41:28;8.00;;;3.40;;
20318;SDS011;10317;47.254;11.314;2023-03-23T00:43:55;4.15;;;3.70;;
20318;SDS011;10317;47.254;11.314;2023-03-23T00:46:21;3.47;;;3.17;;
20318;SDS011;10317;47.254;11.314;2023-03-23T00:48:48;4.03;;;3.40;;
20318;SDS011;10317;47.254;11.314;2023-03-23T00:51:15;4.63;;;2.92;;
20318;SDS011;10317;47.254;11.314;2023-03-23T00:53:44;3.03;;;2.83;;
20318;SDS011;10317;47.254;11.314;2023-03-23T00:56:13;5.55;;;3.25;;
20318;SDS011;10317;47.254;11.314;2023-03-23T00:58:39;4.40;;;3.55;;
20318;SDS011;10317;47.254;11.314;2023-03-23T01:01:06;4.93;;;4.35;;
20318;SDS011;10317;47.254;11.314;2023-03-23T01:03:33;4.75;;;3.25;;
20318;SDS011;10317;47.254;11.314;2023-03-23T01:06:04;5.03;;;2.78;;
20318;SDS011;10317;47.254;11.314;2023-03-23T01:08:37;3.30;;;3.00;;
20318;SDS011;10317;47.254;11.314;2023-03-23T01:11:10;3.65;;;3.35;;
20318;SDS011;10317;47.254;11.314;2023-03-23T01:13:40;4.30;;;2.95;;
20318;SDS011;10317;47.254;11.314;2023-03-23T01:16:09;5.80;;;3.40;;
20318;SDS011;10317;47.254;11.314;2023-03-23T01:18:36;3.13;;;2.80;;
20318;SDS011;10317;47.254;11.314;2023-03-23T01:21:10;6.38;;;3.35;;
20318;SDS011;10317;47.254;11.314;2023-03-23T01:23:38;5.63;;;3.65;;
20318;SDS011;10317;47.254;11.314;2023-03-23T01:26:09;3.88;;;3.47;;
20318;SDS011;10317;47.254;11.314;2023-03-23T01:28:36;3.28;;;2.97;;
20318;SDS011;10317;47.254;11.314;2023-03-23T01:31:03;2.85;;;2.65;;
20318;SDS011;10317;47.254;11.314;2023-03-23T01:33:31;3.47;;;3.17;;
20318;SDS011;10317;47.254;11.314;2023-03-23T01:35:58;2.97;;;2.78;;
20318;SDS011;10317;47.254;11.314;2023-03-23T01:38:27;3.10;;;2.90;;
20318;SDS011;10317;47.254;11.314;2023-03-23T01:40:53;3.22;;;3.03;;
20318;SDS011;10317;47.254;11.314;2023-03-23T01:43:19;5.93;;;3.17;;
20318;SDS011;10317;47.254;11.314;2023-03-23T01:45:45;3.50;;;3.20;;
20318;SDS011;10317;47.254;11.314;2023-03-23T01:48:18;3.10;;;2.90;;
20318;SDS011;10317;47.254;11.314;2023-03-23T01:54:02;3.80;;;3.50;;
20318;SDS011;10317;47.254;11.314;2023-03-23T01:56:29;3.28;;;3.08;;
20318;SDS011;10317;47.254;11.314;2023-03-23T01:59:03;6.13;;;3.45;;
20318;SDS011;10317;47.254;11.314;2023-03-23T02:01:29;3.20;;;2.97;;
20318;SDS011;10317;47.254;11.314;2023-03-23T02:03:55;8.20;;;4.10;;
20318;SDS011;10317;47.254;11.314;2023-03-23T02:06:23;4.38;;;3.33;;
20318;SDS011;10317;47.254;11.314;2023-03-23T02:08:49;3.53;;;3.20;;
20318;SDS011;10317;47.254;11.314;2023-03-23T02:11:18;3.47;;;3.17;;
20318;SDS011;10317;47.254;11.314;2023-03-23T02:13:46;3.22;;;2.97;;
20318;SDS011;10317;47.254;11.314;2023-03-23T02:27:13;3.95;;;3.08;;
20318;SDS011;10317;47.254;11.314;2023-03-23T02:38:09;6.38;;;3.17;;
20318;SDS011;10317;47.254;11.314;2023-03-23T02:40:43;3.80;;;3.33;;
20318;SDS011;10317;47.254;11.314;2023-03-23T02:43:15;4.38;;;3.50;;
20318;SDS011;10317;47.254;11.314;2023-03-23T02:45:44;5.88;;;3.20;;
20318;SDS011;10317;47.254;11.314;2023-03-23T02:48:11;7.20;;;4.22;;
20318;SDS011;10317;47.254;11.314;2023-03-23T02:50:40;4.85;;;3.42;;
20318;SDS011;10317;47.254;11.314;2023-03-23T02:53:09;3.00;;;2.80;;
20318;SDS011;10317;47.254;11.314;2023-03-23T02:55:37;6.00;;;3.55;;
20318;SDS011;10317;47.254;11.314;2023-03-23T02:58:07;4.43;;;4.03;;
20318;SDS011;10317;47.254;11.314;2023-03-23T03:00:33;5.40;;;4.18;;
20318;SDS011;10317;47.254;11.314;2023-03-23T03:03:02;4.93;;;3.65;;
20318;SDS011;10317;47.254;11.314;2023-03-23T03:11:11;4.65;;;3.97;;
20318;SDS011;10317;47.254;11.314;2023-03-23T03:19:08;4.75;;;4.18;;
20318;SDS011;10317;47.254;11.314;2023-03-23T03:21:37;4.65;;;4.18;;
20318;SDS011;10317;47.254;11.314;2023-03-23T03:24:07;5.57;;;4.28;;
20318;SDS011;10317;47.254;11.314;2023-03-23T03:26:36;4.47;;;3.95;;
20318;SDS011;10317;47.254;11.314;2023-03-23T03:29:12;7.20;;;3.80;;
20318;SDS011;10317;47.254;11.314;2023-03-23T03:31:42;5.50;;;4.35;;
20318;SDS011;10317;47.254;11.314;2023-03-23T03:34:10;3.85;;;3.53;;
20318;SDS011;10317;47.254;11.314;2023-03-23T03:36:37;3.78;;;3.47;;
20318;SDS011;10317;47.254;11.314;2023-03-23T03:39:06;4.75;;;4.03;;
20318;SDS011;10317;47.254;11.314;2023-03-23T03:41:34;4.10;;;3.70;;
20318;SDS011;10317;47.254;11.314;2023-03-23T03:44:02;4.75;;;3.90;;
20318;SDS011;10317;47.254;11.314;2023-03-23T03:46:28;6.97;;;4.15;;
20318;SDS011;10317;47.254;11.314;2023-03-23T03:48:56;5.70;;;4.28;;
20318;SDS011;10317;47.254;11.314;2023-03-23T03:51:26;5.28;;;4.07;;
20318;SDS011;10317;47.254;11.314;2023-03-23T03:53:53;4.03;;;3.72;;
20318;SDS011;10317;47.254;11.314;2023-03-23T03:56:19;5.65;;;4.25;;
20318;SDS011;10317;47.254;11.314;2023-03-23T03:58:47;8.55;;;4.43;;
20318;SDS011;10317;47.254;11.314;2023-03-23T04:01:14;4.78;;;3.95;;
20318;SDS011;10317;47.254;11.314;2023-03-23T04:03:41;5.22;;;3.97;;
20318;SDS011;10317;47.254;11.314;2023-03-23T04:06:07;6.85;;;4.30;;
20318;SDS011;10317;47.254;11.314;2023-03-23T04:08:33;5.38;;;4.20;;
20318;SDS011;10317;47.254;11.314;2023-03-23T04:11:00;8.00;;;4.40;;
20318;SDS011;10317;47.254;11.314;2023-03-23T04:13:26;6.88;;;4.18;;
20318;SDS011;10317;47.254;11.314;2023-03-23T04:15:51;4.32;;;3.92;;
20318;SDS011;10317;47.254;11.314;2023-03-23T04:18:18;4.75;;;4.10;;
20318;SDS011;10317;47.254;11.314;2023-03-23T04:20:45;3.92;;;3.60;;
20318;SDS011;10317;47.254;11.314;2023-03-23T04:23:17;4.75;;;3.80;;
20318;SDS011;10317;47.254;11.314;2023-03-23T04:25:48;6.97;;;3.95;;
20318;SDS011;10317;47.254;11.314;2023-03-23T04:28:16;5.60;;;3.95;;
20318;SDS011;10317;47.254;11.314;2023-03-23T04:30:43;8.15;;;4.00;;
20318;SDS011;10317;47.254;11.314;2023-03-23T04:33:10;5.18;;;3.75;;
20318;SDS011;10317;47.254;11.314;2023-03-23T04:35:42;3.75;;;3.33;;
20318;SDS011;10317;47.254;11.314;2023-03-23T04:38:10;4.32;;;3.88;;
20318;SDS011;10317;47.254;11.314;2023-03-23T04:40:37;5.35;;;3.90;;
20318;SDS011;10317;47.254;11.314;2023-03-23T04:43:04;4.57;;;3.97;;
20318;SDS011;10317;47.254;11.314;2023-03-23T04:45:31;4.32;;;3.63;;
20318;SDS011;10317;47.254;11.314;2023-03-23T04:47:58;7.82;;;3.92;;
20318;SDS011;10317;47.254;11.314;2023-03-23T04:50:27;5.47;;;4.55;;
20318;SDS011;10317;47.254;11.314;2023-03-23T04:52:56;4.13;;;3.83;;
20318;SDS011;10317;47.254;11.314;2023-03-23T04:55:23;4.38;;;3.97;;
20318;SDS011;10317;47.254;11.314;2023-03-23T04:57:50;4.32;;;4.03;;
20318;SDS011;10317;47.254;11.314;2023-03-23T05:00:17;4.82;;;4.28;;
20318;SDS011;10317;47.254;11.314;2023-03-23T05:02:44;4.18;;;3.88;;
20318;SDS011;10317;47.254;11.314;2023-03-23T05:05:12;4.40;;;4.05;;
20318;SDS011;10317;47.254;11.314;2023-03-23T05:07:38;7.40;;;4.38;;
20318;SDS011;10317;47.254;11.314;2023-03-23T05:10:05;4.75;;;4.25;;
20318;SDS011;10317;47.254;11.314;2023-03-23T05:12:32;4.35;;;3.63;;
20318;SDS011;10317;47.254;11.314;2023-03-23T05:14:59;4.40;;;4.00;;
20318;SDS011;10317;47.254;11.314;2023-03-23T05:17:25;4.20;;;3.80;;
20318;SDS011;10317;47.254;11.314;2023-03-23T05:19:53;5.40;;;4.90;;
20318;SDS011;10317;47.254;11.314;2023-03-23T05:22:21;4.20;;;3.80;;
20318;SDS011;10317;47.254;11.314;2023-03-23T05:24:48;8.02;;;5.22;;
20318;SDS011;10317;47.254;11.314;2023-03-23T05:27:16;6.28;;;4.10;;
20318;SDS011;10317;47.254;11.314;2023-03-23T05:29:44;6.60;;;4.00;;
20318;SDS011;10317;47.254;11.314;2023-03-23T05:32:13;5.78;;;4.20;;
20318;SDS011;10317;47.254;11.314;2023-03-23T05:34:39;4.20;;;3.90;;
20318;SDS011;10317;47.254;11.314;2023-03-23T05:37:06;4.93;;;4.07;;
20318;SDS011;10317;47.254;11.314;2023-03-23T05:39:32;4.63;;;4.22;;
20318;SDS011;10317;47.254;11.314;2023-03-23T05:41:57;4.97;;;4.43;;
20318;SDS011;10317;47.254;11.314;2023-03-23T05:44:23;4.90;;;4.50;;
20318;SDS011;10317;47.254;11.314;2023-03-23T05:46:49;4.57;;;4.18;;
20318;SDS011;10317;47.254;11.314;2023-03-23T05:49:15;4.10;;;3.70;;
20318;SDS011;10317;47.254;11.314;2023-03-23T05:51:41;4.28;;;3.97;;
20318;SDS011;10317;47.254;11.314;2023-03-23T05:54:09;4.90;;;4.40;;
20318;SDS011;10317;47.254;11.314;2023-03-23T05:56:35;4.70;;;3.63;;
20318;SDS011;10317;47.254;11.314;2023-03-23T05:59:01;4.00;;;3.65;;
20318;SDS011;10317;47.254;11.314;2023-03-23T06:01:27;4.88;;;3.92;;
20318;SDS011;10317;47.254;11.314;2023-03-23T06:03:53;5.25;;;4.00;;
20318;SDS011;10317;47.254;11.314;2023-03-23T06:06:24;5.43;;;3.80;;
20318;SDS011;10317;47.254;11.314;2023-03-23T06:08:55;4.32;;;4.03;;
20318;SDS011;10317;47.254;11.314;2023-03-23T06:11:22;5.18;;;4.07;;
20318;SDS011;10317;47.254;11.314;2023-03-23T06:13:48;7.78;;;4.00;;
20318;SDS011;10317;47.254;11.314;2023-03-23T06:16:14;4.65;;;3.92;;
20318;SDS011;10317;47.254;11.314;2023-03-23T06:18:39;4.47;;;4.07;;
20318;SDS011;10317;47.254;11.314;2023-03-23T06:21:07;4.40;;;4.00;;
20318;SDS011;10317;47.254;11.314;2023-03-23T06:23:34;4.93;;;4.53;;
20318;SDS011;10317;47.254;11.314;2023-03-23T06:26:01;8.77;;;4.32;;
20318;SDS011;10317;47.254;11.314;2023-03-23T06:28:30;5.80;;;4.90;;
20318;SDS011;10317;47.254;11.314;2023-03-23T06:30:58;5.93;;;4.57;;
20318;SDS011;10317;47.254;11.314;2023-03-23T06:33:31;5.57;;;4.70;;
20318;SDS011;10317;47.254;11.314;2023-03-23T06:35:59;7.43;;;5.53;;
20318;SDS011;10317;47.254;11.314;2023-03-23T06:38:25;5.88;;;5.38;;
20318;SDS011;10317;47.254;11.314;2023-03-23T06:40:56;4.85;;;4.40;;
20318;SDS011;10317;47.254;11.314;2023-03-23T06:43:22;6.30;;;4.80;;
20318;SDS011;10317;47.254;11.314;2023-03-23T06:45:49;5.72;;;4.50;;
20318;SDS011;10317;47.254;11.314;2023-03-23T06:48:16;5.00;;;4.10;;
20318;SDS011;10317;47.254;11.314;2023-03-23T06:50:45;5.93;;;4.85;;
20318;SDS011;10317;47.254;11.314;2023-03-23T06:53:11;6.30;;;5.57;;
20318;SDS011;10317;47.254;11.314;2023-03-23T06:55:38;5.40;;;4.90;;
20318;SDS011;10317;47.254;11.314;2023-03-23T06:58:04;5.55;;;5.00;;
20318;SDS011;10317;47.254;11.314;2023-03-23T07:00:31;9.07;;;5.53;;
20318;SDS011;10317;47.254;11.314;2023-03-23T07:02:57;6.03;;;5.45;;
20318;SDS011;10317;47.254;11.314;2023-03-23T07:05:23;5.35;;;4.95;;
20318;SDS011;10317;47.254;11.314;2023-03-23T07:07:49;5.50;;;5.00;;
20318;SDS011;10317;47.254;11.314;2023-03-23T07:10:15;6.25;;;5.18;;
20318;SDS011;10317;47.254;11.314;2023-03-23T07:12:41;6.68;;;5.88;;
20318;SDS011;10317;47.254;11.314;2023-03-23T07:15:09;9.77;;;6.13;;
20318;SDS011;10317;47.254;11.314;2023-03-23T07:17:39;6.78;;;5.50;;
20318;SDS011;10317;47.254;11.314;2023-03-23T07:20:05;6.20;;;5.60;;
20318;SDS011;10317;47.254;11.314;2023-03-23T07:22:32;6.25;;;5.60;;
20318;SDS011;10317;47.254;11.314;2023-03-23T07:24:58;6.13;;;5.55;;
20318;SDS011;10317;47.254;11.314;2023-03-23T07:27:24;5.45;;;4.95;;
20318;SDS011;10317;47.254;11.314;2023-03-23T07:29:50;4.53;;;4.13;;
20318;SDS011;10317;47.254;11.314;2023-03-23T07:32:16;7.43;;;4.90;;
20318;SDS011;10317;47.254;11.314;2023-03-23T07:34:41;7.50;;;5.15;;
20318;SDS011;10317;47.254;11.314;2023-03-23T07:37:07;5.30;;;4.80;;
20318;SDS011;10317;47.254;11.314;2023-03-23T07:39:33;5.25;;;4.75;;
20318;SDS011;10317;47.254;11.314;2023-03-23T07:41:59;4.57;;;4.18;;
20318;SDS011;10317;47.254;11.314;2023-03-23T07:44:25;5.07;;;4.57;;
20318;SDS011;10317;47.254;11.314;2023-03-23T07:46:51;5.13;;;4.63;;
20318;SDS011;10317;47.254;11.314;2023-03-23T07:49:17;6.57;;;4.88;;
20318;SDS011;10317;47.254;11.314;2023-03-23T07:51:43;5.25;;;4.13;;
20318;SDS011;10317;47.254;11.314;2023-03-23T07:54:09;4.82;;;4.18;;
20318;SDS011;10317;47.254;11.314;2023-03-23T07:56:35;4.88;;;4.30;;
20318;SDS011;10317;47.254;11.314;2023-03-23T07:59:02;5.20;;;4.70;;
20318;SDS011;10317;47.254;11.314;2023-03-23T08:01:29;6.97;;;4.80;;
20318;SDS011;10317;47.254;11.314;2023-03-23T08:03:55;5.05;;;4.50;;
20318;SDS011;10317;47.254;11.314;2023-03-23T08:06:23;5.20;;;4.60;;
20318;SDS011;10317;47.254;11.314;2023-03-23T08:08:49;6.28;;;4.47;;
20318;SDS011;10317;47.254;11.314;2023-03-23T08:11:15;7.00;;;5.32;;
20318;SDS011;10317;47.254;11.314;2023-03-23T08:13:42;5.45;;;4.75;;
20318;SDS011;10317;47.254;11.314;2023-03-23T08:16:08;4.78;;;4.40;;
20318;SDS011;10317;47.254;11.314;2023-03-23T08:18:35;6.60;;;5.00;;
20318;SDS011;10317;47.254;11.314;2023-03-23T08:21:02;5.43;;;4.78;;
20318;SDS011;10317;47.254;11.314;2023-03-23T08:23:34;5.38;;;4.88;;
20318;SDS011;10317;47.254;11.314;2023-03-23T08:26:01;4.60;;;4.20;;
20318;SDS011;10317;47.254;11.314;2023-03-23T08:28:28;4.57;;;4.20;;
20318;SDS011;10317;47.254;11.314;2023-03-23T08:30:53;6.35;;;4.75;;
20318;SDS011;10317;47.254;11.314;2023-03-23T08:33:19;5.40;;;4.88;;
20318;SDS011;10317;47.254;11.314;2023-03-23T08:35:53;5.72;;;5.22;;
20318;SDS011;10317;47.254;11.314;2023-03-23T08:38:23;7.50;;;4.80;;
20318;SDS011;10317;47.254;11.314;2023-03-23T08:40:49;5.90;;;4.78;;
20318;SDS011;10317;47.254;11.314;2023-03-23T08:43:16;7.72;;;5.50;;
20318;SDS011;10317;47.254;11.314;2023-03-23T08:45:42;7.05;;;5.63;;
20318;SDS011;10317;47.254;11.314;2023-03-23T08:48:08;8.20;;;5.65;;
20318;SDS011;10317;47.254;11.314;2023-03-23T08:50:33;6.22;;;5.53;;
20318;SDS011;10317;47.254;11.314;2023-03-23T08:53:00;6.57;;;5.10;;
20318;SDS011;10317;47.254;11.314;2023-03-23T08:55:26;10.45;;;5.78;;
20318;SDS011;10317;47.254;11.314;2023-03-23T08:57:53;6.40;;;5.68;;
20318;SDS011;10317;47.254;11.314;2023-03-23T09:00:20;5.85;;;5.30;;
20318;SDS011;10317;47.254;11.314;2023-03-23T09:02:50;8.07;;;5.63;;
20318;SDS011;10317;47.254;11.314;2023-03-23T09:05:18;5.70;;;5.25;;
20318;SDS011;10317;47.254;11.314;2023-03-23T09:07:47;5.55;;;5.05;;
20318;SDS011;10317;47.254;11.314;2023-03-23T09:10:15;5.95;;;5.35;;
20318;SDS011;10317;47.254;11.314;2023-03-23T09:12:41;6.85;;;4.85;;
20318;SDS011;10317;47.254;11.314;2023-03-23T09:15:08;6.70;;;6.05;;
20318;SDS011;10317;47.254;11.314;2023-03-23T09:17:36;10.15;;;6.30;;
20318;SDS011;10317;47.254;11.314;2023-03-23T09:20:05;10.18;;;8.02;;
20318;SDS011;10317;47.254;11.314;2023-03-23T09:22:38;7.07;;;5.55;;
20318;SDS011;10317;47.254;11.314;2023-03-23T09:25:06;8.32;;;6.35;;
20318;SDS011;10317;47.254;11.314;2023-03-23T09:27:33;6.53;;;5.93;;
20318;SDS011;10317;47.254;11.314;2023-03-23T09:30:01;6.22;;;5.65;;
20318;SDS011;10317;47.254;11.314;2023-03-23T09:32:31;6.97;;;5.80;;
20318;SDS011;10317;47.254;11.314;2023-03-23T09:34:59;8.70;;;5.63;;
20318;SDS011;10317;47.254;11.314;2023-03-23T09:37:26;7.68;;;5.90;;
20318;SDS011;10317;47.254;11.314;2023-03-23T09:39:52;8.40;;;6.00;;
20318;SDS011;10317;47.254;11.314;2023-03-23T09:50:27;5.90;;;5.28;;
20318;SDS011;10317;47.254;11.314;2023-03-23T09:52:58;6.35;;;5.30;;
20318;SDS011;10317;47.254;11.314;2023-03-23T09:55:38;9.00;;;5.55;;
20318;SDS011;10317;47.254;11.314;2023-03-23T10:01:16;6.25;;;5.38;;
20318;SDS011;10317;47.254;11.314;2023-03-23T10:03:52;8.27;;;6.13;;
20318;SDS011;10317;47.254;11.314;2023-03-23T10:06:26;7.85;;;6.07;;
20318;SDS011;10317;47.254;11.314;2023-03-23T10:08:53;7.22;;;6.50;;
20318;SDS011;10317;47.254;11.314;2023-03-23T10:21:51;6.30;;;5.57;;
20318;SDS011;10317;47.254;11.314;2023-03-23T10:24:21;9.98;;;5.72;;
20318;SDS011;10317;47.254;11.314;2023-03-23T10:29:36;9.10;;;5.95;;
20318;SDS011;10317;47.254;11.314;2023-03-23T10:32:22;7.25;;;6.63;;
20318;SDS011;10317;47.254;11.314;2023-03-23T10:35:20;6.72;;;6.10;;
20318;SDS011;10317;47.254;11.314;2023-03-23T10:38:53;6.22;;;5.63;;
20318;SDS011;10317;47.254;11.314;2023-03-23T10:40:55;6.72;;;5.60;;
20318;SDS011;10317;47.254;11.314;2023-03-23T10:43:24;7.68;;;6.10;;
20318;SDS011;10317;47.254;11.314;2023-03-23T10:45:56;8.90;;;6.50;;
20318;SDS011;10317;47.254;11.314;2023-03-23T10:48:30;8.57;;;6.22;;
20318;SDS011;10317;47.254;11.314;2023-03-23T10:51:02;7.18;;;6.47;;
20318;SDS011;10317;47.254;11.314;2023-03-23T10:53:32;6.88;;;6.28;;
20318;SDS011;10317;47.254;11.314;2023-03-23T10:56:01;7.82;;;6.25;;
20318;SDS011;10317;47.254;11.314;2023-03-23T10:58:28;6.88;;;6.22;;
20318;SDS011;10317;47.254;11.314;2023-03-23T11:00:55;7.70;;;5.70;;
20318;SDS011;10317;47.254;11.314;2023-03-23T11:03:24;7.00;;;5.82;;
20318;SDS011;10317;47.254;11.314;2023-03-23T11:05:58;8.70;;;6.55;;
20318;SDS011;10317;47.254;11.314;2023-03-23T11:08:30;6.35;;;5.75;;
20318;SDS011;10317;47.254;11.314;2023-03-23T11:13:37;8.23;;;6.60;;
20318;SDS011;10317;47.254;11.314;2023-03-23T11:16:24;7.68;;;6.88;;
20318;SDS011;10317;47.254;11.314;2023-03-23T11:18:53;9.43;;;6.70;;
20318;SDS011;10317;47.254;11.314;2023-03-23T11:21:20;7.47;;;6.45;;
20318;SDS011;10317;47.254;11.314;2023-03-23T11:23:55;12.38;;;7.18;;
20318;SDS011;10317;47.254;11.314;2023-03-23T11:26:27;8.05;;;7.00;;
20318;SDS011;10317;47.254;11.314;2023-03-23T11:29:05;8.50;;;6.00;;
20318;SDS011;10317;47.254;11.314;2023-03-23T11:31:36;7.78;;;7.07;;
20318;SDS011;10317;47.254;11.314;2023-03-23T11:36:41;8.93;;;7.30;;
20318;SDS011;10317;47.254;11.314;2023-03-23T11:39:23;6.90;;;6.20;;
20318;SDS011;10317;47.254;11.314;2023-03-23T11:41:48;9.23;;;6.88;;
20318;SDS011;10317;47.254;11.314;2023-03-23T11:44:14;7.15;;;5.88;;
20318;SDS011;10317;47.254;11.314;2023-03-23T11:49:45;9.90;;;6.90;;
20318;SDS011;10317;47.254;11.314;2023-03-23T11:52:16;9.57;;;6.57;;
20318;SDS011;10317;47.254;11.314;2023-03-23T11:58:18;8.88;;;7.38;;
20318;SDS011;10317;47.254;11.314;2023-03-23T12:00:55;5.88;;;5.38;;
20318;SDS011;10317;47.254;11.314;2023-03-23T12:06:43;10.13;;;7.22;;
20318;SDS011;10317;47.254;11.314;2023-03-23T12:15:21;10.05;;;8.43;;
20318;SDS011;10317;47.254;11.314;2023-03-23T12:18:13;8.45;;;6.47;;
20318;SDS011;10317;47.254;11.314;2023-03-23T12:29:52;7.63;;;6.72;;
20318;SDS011;10317;47.254;11.314;2023-03-23T12:38:03;9.45;;;7.82;;
20318;SDS011;10317;47.254;11.314;2023-03-23T12:57:14;12.63;;;9.40;;
20318;SDS011;10317;47.254;11.314;2023-03-23T12:59:55;13.43;;;9.77;;
20318;SDS011;10317;47.254;11.314;2023-03-23T13:02:41;10.40;;;8.57;;
20318;SDS011;10317;47.254;11.314;2023-03-23T13:10:50;9.25;;;7.70;;
20318;SDS011;10317;47.254;11.314;2023-03-23T13:13:22;9.18;;;7.88;;
20318;SDS011;10317;47.254;11.314;2023-03-23T13:16:55;9.38;;;7.68;;
20318;SDS011;10317;47.254;11.314;2023-03-23T13:24:15;12.35;;;8.02;;
20318;SDS011;10317;47.254;11.314;2023-03-23T13:26:43;10.00;;;8.40;;
20318;SDS011;10317;47.254;11.314;2023-03-23T13:29:13;11.85;;;9.43;;
20318;SDS011;10317;47.254;11.314;2023-03-23T13:31:43;11.88;;;8.23;;
20318;SDS011;10317;47.254;11.314;2023-03-23T13:34:25;9.57;;;8.07;;
20318;SDS011;10317;47.254;11.314;2023-03-23T13:36:59;13.68;;;8.50;;
20318;SDS011;10317;47.254;11.314;2023-03-23T13:39:52;18.92;;;10.93;;
20318;SDS011;10317;47.254;11.314;2023-03-23T13:42:30;11.65;;;8.90;;
20318;SDS011;10317;47.254;11.314;2023-03-23T13:48:05;14.15;;;9.70;;
20318;SDS011;10317;47.254;11.314;2023-03-23T13:51:21;17.20;;;11.60;;
20318;SDS011;10317;47.254;11.314;2023-03-23T13:53:47;11.63;;;8.93;;
20318;SDS011;10317;47.254;11.314;2023-03-23T13:59:16;17.98;;;9.57;;
20318;SDS011;10317;47.254;11.314;2023-03-23T14:01:54;14.85;;;11.43;;
20318;SDS011;10317;47.254;11.314;2023-03-23T14:04:22;17.02;;;10.93;;
20318;SDS011;10317;47.254;11.314;2023-03-23T14:06:57;12.50;;;9.90;;
20318;SDS011;10317;47.254;11.314;2023-03-23T14:09:39;13.00;;;9.52;;
20318;SDS011;10317;47.254;11.314;2023-03-23T14:12:21;14.43;;;9.55;;
20318;SDS011;10317;47.254;11.314;2023-03-23T14:14:55;10.50;;;8.75;;
20318;SDS011;10317;47.254;11.314;2023-03-23T14:17:30;8.98;;;7.90;;
20318;SDS011;10317;47.254;11.314;2023-03-23T14:19:59;13.55;;;8.30;;
20318;SDS011;10317;47.254;11.314;2023-03-23T14:22:27;11.35;;;8.00;;
20318;SDS011;10317;47.254;11.314;2023-03-23T14:25:11;11.73;;;7.80;;
20318;SDS011;10317;47.254;11.314;2023-03-23T14:27:38;13.23;;;8.75;;
20318;SDS011;10317;47.254;11.314;2023-03-23T14:30:07;11.43;;;8.05;;
20318;SDS011;10317;47.254;11.314;2023-03-23T14:32:37;11.35;;;8.13;;
20318;SDS011;10317;47.254;11.314;2023-03-23T14:35:05;17.85;;;10.18;;
20318;SDS011;10317;47.254;11.314;2023-03-23T14:37:37;16.00;;;11.13;;
20318;SDS011;10317;47.254;11.314;2023-03-23T14:40:03;14.27;;;9.30;;
20318;SDS011;10317;47.254;11.314;2023-03-23T14:42:34;15.40;;;9.65;;
20318;SDS011;10317;47.254;11.314;2023-03-23T14:45:01;15.05;;;9.27;;
20318;SDS011;10317;47.254;11.314;2023-03-23T14:47:31;14.43;;;8.75;;
20318;SDS011;10317;47.254;11.314;2023-03-23T14:50:04;12.93;;;8.85;;
20318;SDS011;10317;47.254;11.314;2023-03-23T14:52:35;12.50;;;8.50;;
20318;SDS011;10317;47.254;11.314;2023-03-23T14:55:12;13.13;;;8.82;;
20318;SDS011;10317;47.254;11.314;2023-03-23T14:57:41;15.50;;;9.98;;
20318;SDS011;10317;47.254;11.314;2023-03-23T15:00:40;14.73;;;8.75;;
20318;SDS011;10317;47.254;11.314;2023-03-23T15:03:02;14.68;;;8.73;;
20318;SDS011;10317;47.254;11.314;2023-03-23T15:05:32;13.30;;;8.82;;
20318;SDS011;10317;47.254;11.314;2023-03-23T15:08:05;16.85;;;10.73;;
20318;SDS011;10317;47.254;11.314;2023-03-23T15:10:36;16.00;;;10.63;;
20318;SDS011;10317;47.254;11.314;2023-03-23T15:13:02;17.17;;;10.88;;
20318;SDS011;10317;47.254;11.314;2023-03-23T15:15:31;16.77;;;11.50;;
20318;SDS011;10317;47.254;11.314;2023-03-23T15:18:01;23.58;;;13.23;;
20318;SDS011;10317;47.254;11.314;2023-03-23T15:23:17;21.73;;;12.77;;
20318;SDS011;10317;47.254;11.314;2023-03-23T15:25:51;17.67;;;12.07;;
20318;SDS011;10317;47.254;11.314;2023-03-23T15:28:19;17.17;;;10.60;;
20318;SDS011;10317;47.254;11.314;2023-03-23T15:30:57;15.90;;;10.63;;
20318;SDS011;10317;47.254;11.314;2023-03-23T15:33:26;19.58;;;11.48;;
20318;SDS011;10317;47.254;11.314;2023-03-23T15:35:58;23.80;;;13.45;;
20318;SDS011;10317;47.254;11.314;2023-03-23T15:38:31;19.77;;;11.98;;
20318;SDS011;10317;47.254;11.314;2023-03-23T15:41:00;19.35;;;12.32;;
20318;SDS011;10317;47.254;11.314;2023-03-23T15:43:33;29.17;;;13.60;;
20318;SDS011;10317;47.254;11.314;2023-03-23T15:48:54;22.90;;;12.93;;
20318;SDS011;10317;47.254;11.314;2023-03-23T15:51:34;15.98;;;10.10;;
20318;SDS011;10317;47.254;11.314;2023-03-23T15:54:00;20.23;;;11.80;;
20318;SDS011;10317;47.254;11.314;2023-03-23T15:56:26;24.17;;;13.85;;
20318;SDS011;10317;47.254;11.314;2023-03-23T15:58:54;21.42;;;13.40;;
20318;SDS011;10317;47.254;11.314;2023-03-23T16:01:24;23.27;;;13.52;;
20318;SDS011;10317;47.254;11.314;2023-03-23T16:03:58;20.17;;;12.20;;
20318;SDS011;10317;47.254;11.314;2023-03-23T16:06:26;15.48;;;10.15;;
20318;SDS011;10317;47.254;11.314;2023-03-23T16:08:54;20.70;;;11.18;;
20318;SDS011;10317;47.254;11.314;2023-03-23T16:11:21;17.02;;;8.75;;
20318;SDS011;10317;47.254;11.314;2023-03-23T16:13:48;13.05;;;7.97;;
20318;SDS011;10317;47.254;11.314;2023-03-23T16:16:17;12.05;;;8.25;;
20318;SDS011;10317;47.254;11.314;2023-03-23T16:18:46;21.17;;;11.48;;
20318;SDS011;10317;47.254;11.314;2023-03-23T16:21:12;15.23;;;9.88;;
20318;SDS011;10317;47.254;11.314;2023-03-23T16:23:37;19.48;;;10.90;;
20318;SDS011;10317;47.254;11.314;2023-03-23T16:26:05;20.08;;;11.38;;
20318;SDS011;10317;47.254;11.314;2023-03-23T16:28:33;12.90;;;8.63;;
20318;SDS011;10317;47.254;11.314;2023-03-23T16:30:59;11.98;;;9.20;;
20318;SDS011;10317;47.254;11.314;2023-03-23T16:33:24;13.23;;;7.55;;
20318;SDS011;10317;47.254;11.314;2023-03-23T16:35:50;11.13;;;7.40;;
20318;SDS011;10317;47.254;11.314;2023-03-23T16:38:16;12.23;;;6.80;;
20318;SDS011;10317;47.254;11.314;2023-03-23T16:40:42;22.92;;;12.50;;
20318;SDS011;10317;47.254;11.314;2023-03-23T16:43:09;17.92;;;10.23;;
20318;SDS011;10317;47.254;11.314;2023-03-23T16:45:36;21.00;;;10.60;;
20318;SDS011;10317;47.254;11.314;2023-03-23T16:48:03;9.93;;;6.40;;
20318;SDS011;10317;47.254;11.314;2023-03-23T16:50:29;11.50;;;8.07;;
20318;SDS011;10317;47.254;11.314;2023-03-23T16:52:56;13.05;;;8.55;;
20318;SDS011;10317;47.254;11.314;2023-03-23T16:55:23;14.82;;;9.07;;
20318;SDS011;10317;47.254;11.314;2023-03-23T16:57:51;19.23;;;11.05;;